Time;durP1;ratioP1;P1;durP2;ratioP2;P2;SDS_P1;SDS_P2;PMS_P1;PMS_P2;Temp;Humidity;BMP_temperature;BMP_pressure;BME280_temperature;BME280_humidity;BME280_pressure;Samples;Min_cycle;Max_cycle;Signal;HPM_P1;HPM_P2
2023/07/10 00:00:04;;;;;;;;;;;28.80;59.50;;;;;;5147584;27;42973;-84
2023/07/10 00:02:29;;;;;;;;;;;28.80;59.60;;;;;;5147510;27;43027;-84
2023/07/10 00:04:55;;;;;;;;;;;28.70;59.10;;;;;;5147267;27;43014;-79
2023/07/10 00:07:20;;;;;;;;;;;28.70;59.60;;;;;;5146955;27;42928;-85
2023/07/10 00:09:46;;;;;;;;;;;28.70;59.00;;;;;;5127614;27;44964;-80
2023/07/10 00:12:13;;;;;;;;;;;28.80;59.50;;;;;;5147076;27;43044;-78
2023/07/10 00:14:38;;;;;;;;;;;28.80;59.30;;;;;;5147169;27;43609;-81
2023/07/10 00:17:05;;;;;;;;;;;28.90;58.90;;;;;;5147260;27;43022;-79
2023/07/10 00:19:30;;;;;;;;;;;28.80;59.30;;;;;;5146093;27;43846;-82
2023/07/10 00:21:56;;;;;;;;;;;28.80;58.80;;;;;;5146447;27;42902;-84
2023/07/10 00:24:22;;;;;;;;;;;28.80;58.80;;;;;;5146296;27;42958;-83
2023/07/10 00:26:47;;;;;;;;;;;28.80;58.80;;;;;;5146227;27;43013;-81
2023/07/10 00:29:20;;;;;;;;;;;28.80;59.40;;;;;;5147050;27;42980;-81
2023/07/10 00:31:45;;;;;;;;;;;28.90;59.40;;;;;;5146815;27;42851;-85
2023/07/10 00:34:14;;;;;;;;;;;28.80;58.90;;;;;;5146765;27;42917;-83
2023/07/10 00:36:41;;;;;;;;;;;28.80;58.90;;;;;;5145782;27;42923;-82
2023/07/10 00:39:19;;;;;;;;;;;28.80;58.90;;;;;;5147107;27;43104;-83
2023/07/10 00:41:45;;;;;;;;;;;28.80;59.40;;;;;;5146751;27;42938;-81
2023/07/10 00:44:12;;;;;;;;;;;28.80;59.10;;;;;;5146264;27;42847;-79
2023/07/10 00:46:40;;;;;;;;;;;28.80;59.00;;;;;;5146296;27;42968;-85
2023/07/10 00:49:12;;;;;;;;;;;28.80;59.00;;;;;;5146241;27;44077;-81
2023/07/10 00:51:44;;;;;;;;;;;28.80;58.90;;;;;;5145872;27;42918;-84
2023/07/10 00:54:16;;;;;;;;;;;28.80;59.40;;;;;;5145903;27;43568;-80
2023/07/10 00:56:45;;;;;;;;;;;28.80;59.40;;;;;;5145427;27;43167;-81
2023/07/10 00:59:21;;;;;;;;;;;28.80;59.40;;;;;;5145352;27;43437;-80
2023/07/10 01:02:05;;;;;;;;;;;28.90;59.10;;;;;;5133776;27;43081;-84
2023/07/10 01:04:30;;;;;;;;;;;28.90;59.40;;;;;;5145413;27;43725;-80
2023/07/10 01:06:56;;;;;;;;;;;28.90;58.90;;;;;;5145843;27;42876;-79
2023/07/10 01:09:21;;;;;;;;;;;28.90;59.40;;;;;;5145286;27;43152;-79
2023/07/10 01:11:47;;;;;;;;;;;28.90;58.80;;;;;;5146243;27;42788;-83
2023/07/10 01:14:13;;;;;;;;;;;29.00;59.30;;;;;;5145819;27;42801;-83
2023/07/10 01:16:38;;;;;;;;;;;28.90;58.90;;;;;;5145666;27;43200;-78
2023/07/10 01:19:06;;;;;;;;;;;28.90;58.90;;;;;;5146013;27;43411;-83
2023/07/10 01:21:33;;;;;;;;;;;28.90;59.30;;;;;;5145882;27;43010;-78
2023/07/10 01:24:00;;;;;;;;;;;28.90;58.90;;;;;;5145963;27;42998;-82
2023/07/10 01:26:26;;;;;;;;;;;28.90;59.30;;;;;;5145681;27;42973;-84
2023/07/10 01:28:53;;;;;;;;;;;28.90;59.30;;;;;;5144728;27;42952;-81
2023/07/10 01:31:19;;;;;;;;;;;29.00;59.30;;;;;;5146240;27;42934;-79
2023/07/10 01:33:48;;;;;;;;;;;28.90;58.90;;;;;;5138216;27;43511;-84
2023/07/10 01:36:15;;;;;;;;;;;28.90;59.40;;;;;;5134605;27;43061;-79
2023/07/10 01:38:45;;;;;;;;;;;28.90;59.30;;;;;;5125804;27;44100;-85
2023/07/10 01:41:18;;;;;;;;;;;28.90;58.80;;;;;;5146836;27;42859;-85
2023/07/10 01:43:44;;;;;;;;;;;28.90;58.80;;;;;;5146527;27;43542;-84
2023/07/10 01:46:17;;;;;;;;;;;28.90;59.40;;;;;;5147502;27;42984;-84
2023/07/10 01:48:42;;;;;;;;;;;28.90;59.30;;;;;;5146682;27;42983;-79
2023/07/10 01:51:08;;;;;;;;;;;28.90;59.40;;;;;;5146511;27;42886;-79
2023/07/10 01:53:33;;;;;;;;;;;28.90;59.50;;;;;;5147405;27;43873;-79
2023/07/10 01:55:59;;;;;;;;;;;28.90;59.50;;;;;;5148869;27;42884;-79
2023/07/10 01:58:24;;;;;;;;;;;28.80;59.00;;;;;;5147026;27;43643;-83
2023/07/10 02:00:50;;;;;;;;;;;28.90;59.10;;;;;;5148215;27;43064;-78
2023/07/10 02:03:15;;;;;;;;;;;28.90;59.60;;;;;;5148646;27;43042;-82
2023/07/10 02:05:41;;;;;;;;;;;28.90;59.50;;;;;;5148236;27;42935;-81
2023/07/10 02:08:06;;;;;;;;;;;28.90;59.10;;;;;;5147203;27;43852;-79
2023/07/10 02:10:32;;;;;;;;;;;28.90;59.10;;;;;;5136193;27;42964;-84
2023/07/10 02:12:57;;;;;;;;;;;28.90;59.50;;;;;;5108590;27;44448;-80
2023/07/10 02:15:23;;;;;;;;;;;28.90;59.00;;;;;;5128428;27;42960;-79
2023/07/10 02:17:48;;;;;;;;;;;28.90;59.50;;;;;;5136389;27;43474;-79
2023/07/10 02:20:14;;;;;;;;;;;28.90;59.50;;;;;;5147460;27;42935;-78
2023/07/10 02:22:39;;;;;;;;;;;28.90;58.90;;;;;;5143387;27;42843;-78
2023/07/10 02:25:05;;;;;;;;;;;28.90;58.80;;;;;;5135381;27;42916;-78
2023/07/10 02:27:30;;;;;;;;;;;28.90;59.10;;;;;;5143907;27;44126;-79
2023/07/10 02:29:56;;;;;;;;;;;28.90;58.60;;;;;;5138332;27;42729;-81
2023/07/10 02:32:21;;;;;;;;;;;28.90;58.70;;;;;;5145576;27;42789;-78
2023/07/10 02:34:47;;;;;;;;;;;28.80;59.10;;;;;;5148042;27;42880;-80
2023/07/10 02:37:12;;;;;;;;;;;28.90;59.30;;;;;;5148686;27;42855;-81
2023/07/10 02:39:38;;;;;;;;;;;28.80;59.10;;;;;;5134346;27;42964;-79
2023/07/10 02:42:03;;;;;;;;;;;28.80;59.10;;;;;;5147620;27;43674;-78
2023/07/10 02:44:30;;;;;;;;;;;28.90;59.30;;;;;;5127816;27;43014;-79
2023/07/10 02:46:55;;;;;;;;;;;28.80;58.60;;;;;;5141717;27;43503;-78
2023/07/10 02:49:21;;;;;;;;;;;28.80;58.60;;;;;;5141514;27;43081;-78
2023/07/10 02:51:46;;;;;;;;;;;28.80;59.50;;;;;;5140444;27;43376;-79
2023/07/10 02:54:12;;;;;;;;;;;28.80;59.00;;;;;;5148216;27;43140;-79
2023/07/10 02:56:38;;;;;;;;;;;28.80;58.50;;;;;;5147763;27;43762;-82
2023/07/10 02:59:04;;;;;;;;;;;28.80;58.50;;;;;;5129892;27;42884;-79
2023/07/10 03:01:30;;;;;;;;;;;28.90;58.60;;;;;;5129214;27;43655;-79
2023/07/10 03:03:55;;;;;;;;;;;28.80;58.40;;;;;;5135122;27;42961;-79
2023/07/10 03:06:23;;;;;;;;;;;28.80;58.90;;;;;;5126997;27;42944;-80
2023/07/10 03:08:48;;;;;;;;;;;28.90;58.30;;;;;;5127016;27;43257;-80
2023/07/10 03:11:15;;;;;;;;;;;28.80;58.40;;;;;;5147220;27;43051;-80
2023/07/10 03:13:40;;;;;;;;;;;28.80;58.50;;;;;;5148456;27;42883;-78
2023/07/10 03:16:08;;;;;;;;;;;28.80;59.00;;;;;;5128458;27;45396;-81
2023/07/10 03:18:34;;;;;;;;;;;28.80;58.50;;;;;;5134551;27;43221;-78
2023/07/10 03:21:00;;;;;;;;;;;28.90;58.30;;;;;;5147856;27;43798;-79
2023/07/10 03:23:25;;;;;;;;;;;28.80;58.20;;;;;;5146591;27;42968;-78
2023/07/10 03:25:51;;;;;;;;;;;28.90;58.70;;;;;;5146701;27;43682;-79
2023/07/10 03:28:16;;;;;;;;;;;28.90;58.80;;;;;;5147486;27;42765;-79
2023/07/10 03:30:42;;;;;;;;;;;28.80;58.20;;;;;;5147297;27;42923;-79
2023/07/10 03:33:09;;;;;;;;;;;28.80;58.80;;;;;;5147994;27;42909;-79
2023/07/10 03:35:34;;;;;;;;;;;28.80;58.40;;;;;;5146934;27;42881;-79
2023/07/10 03:37:59;;;;;;;;;;;28.80;58.90;;;;;;5147166;27;43097;-78
2023/07/10 03:40:25;;;;;;;;;;;28.80;58.20;;;;;;5147527;27;43941;-78
2023/07/10 03:42:50;;;;;;;;;;;28.80;58.30;;;;;;5147566;27;43215;-78
2023/07/10 03:45:16;;;;;;;;;;;28.80;58.80;;;;;;5146182;27;43228;-78
2023/07/10 03:47:42;;;;;;;;;;;28.80;58.10;;;;;;5127971;27;42964;-79
2023/07/10 03:50:08;;;;;;;;;;;28.80;58.70;;;;;;5146373;27;42960;-78
2023/07/10 03:52:33;;;;;;;;;;;28.80;58.10;;;;;;5146708;27;43057;-78
2023/07/10 03:54:59;;;;;;;;;;;28.80;58.20;;;;;;5143543;27;42746;-79
2023/07/10 03:57:26;;;;;;;;;;;28.80;58.20;;;;;;5137415;27;42905;-79
2023/07/10 03:59:52;;;;;;;;;;;28.90;58.50;;;;;;5131683;27;43722;-81
2023/07/10 04:02:17;;;;;;;;;;;28.80;58.20;;;;;;5142823;27;42870;-81
2023/07/10 04:04:43;;;;;;;;;;;28.90;58.20;;;;;;5146249;27;43711;-81
2023/07/10 04:07:09;;;;;;;;;;;28.80;57.80;;;;;;5127385;27;43871;-80
2023/07/10 04:09:34;;;;;;;;;;;28.70;58.40;;;;;;5139476;27;43620;-80
2023/07/10 04:12:00;;;;;;;;;;;28.80;58.40;;;;;;5135997;27;43064;-82
2023/07/10 04:14:25;;;;;;;;;;;28.80;58.10;;;;;;5121279;27;44557;-81
2023/07/10 04:16:53;;;;;;;;;;;28.80;58.10;;;;;;5134640;27;42957;-81
2023/07/10 04:19:19;;;;;;;;;;;28.80;58.20;;;;;;5132604;27;42964;-81
2023/07/10 04:21:45;;;;;;;;;;;28.80;58.30;;;;;;5120028;27;42973;-82
2023/07/10 04:24:11;;;;;;;;;;;28.80;57.80;;;;;;5128503;27;43517;-80
2023/07/10 04:26:37;;;;;;;;;;;28.90;57.80;;;;;;5127866;27;42975;-80
2023/07/10 04:29:05;;;;;;;;;;;28.80;57.80;;;;;;5140964;27;43533;-81
2023/07/10 04:31:31;;;;;;;;;;;28.80;57.80;;;;;;5138609;27;42895;-81
2023/07/10 04:33:57;;;;;;;;;;;28.80;57.80;;;;;;5145408;27;42934;-81
2023/07/10 04:36:23;;;;;;;;;;;28.80;58.30;;;;;;5132068;27;42986;-81
2023/07/10 04:38:49;;;;;;;;;;;28.80;58.40;;;;;;5142383;27;43352;-80
2023/07/10 04:41:17;;;;;;;;;;;28.80;57.90;;;;;;5143896;27;43202;-81
2023/07/10 04:43:43;;;;;;;;;;;28.80;58.40;;;;;;5145105;27;42911;-80
2023/07/10 04:46:09;;;;;;;;;;;28.80;58.30;;;;;;5145282;27;42997;-80
2023/07/10 04:48:35;;;;;;;;;;;28.80;58.30;;;;;;5132285;27;42972;-80
2023/07/10 04:51:03;;;;;;;;;;;28.80;57.80;;;;;;5138029;27;43278;-80
2023/07/10 04:53:29;;;;;;;;;;;28.80;57.80;;;;;;5127086;27;45961;-81
2023/07/10 04:55:55;;;;;;;;;;;28.80;57.80;;;;;;5146214;27;42977;-81
2023/07/10 04:58:24;;;;;;;;;;;28.80;58.00;;;;;;5131927;27;43679;-82
2023/07/10 05:00:53;;;;;;;;;;;28.80;58.00;;;;;;5145987;27;42943;-81
2023/07/10 05:03:19;;;;;;;;;;;28.80;58.10;;;;;;5132788;27;43693;-81
2023/07/10 05:05:55;;;;;;;;;;;28.80;58.60;;;;;;5145263;27;42861;-80
2023/07/10 05:08:23;;;;;;;;;;;28.80;58.40;;;;;;5145170;27;43035;-81
2023/07/10 05:10:54;;;;;;;;;;;28.70;58.60;;;;;;5145824;27;42907;-81
2023/07/10 05:13:24;;;;;;;;;;;28.70;59.20;;;;;;5147252;27;43565;-81
2023/07/10 05:15:50;;;;;;;;;;;25.40;56.00;;;;;;5149192;27;42906;-80
2023/07/10 05:18:16;;;;;;;;;;;28.70;58.60;;;;;;5150112;27;43004;-81
2023/07/10 05:20:45;;;;;;;;;;;28.70;58.60;;;;;;5149114;27;43055;-81
2023/07/10 05:23:10;;;;;;;;;;;28.70;58.10;;;;;;5150434;27;43117;-80
2023/07/10 05:25:36;;;;;;;;;;;28.70;58.10;;;;;;5146192;27;43052;-81
2023/07/10 05:28:02;;;;;;;;;;;28.70;58.60;;;;;;5139755;27;42942;-81
2023/07/10 05:30:28;;;;;;;;;;;28.70;58.30;;;;;;5130008;27;42866;-80
2023/07/10 05:32:53;;;;;;;;;;;28.70;58.20;;;;;;5149850;27;42870;-81
2023/07/10 05:35:19;;;;;;;;;;;28.70;58.20;;;;;;5117095;27;43010;-80
2023/07/10 05:37:44;;;;;;;;;;;28.70;58.30;;;;;;5139544;27;43034;-81
2023/07/10 05:40:10;;;;;;;;;;;28.70;58.20;;;;;;5127456;27;42880;-81
2023/07/10 05:42:37;;;;;;;;;;;28.70;58.20;;;;;;5149929;27;42933;-80
2023/07/10 05:45:03;;;;;;;;;;;28.70;58.20;;;;;;5149222;27;42938;-80
2023/07/10 05:47:29;;;;;;;;;;;28.70;58.40;;;;;;5120733;27;43466;-80
2023/07/10 05:49:55;;;;;;;;;;;28.70;58.50;;;;;;5146664;27;42910;-80
2023/07/10 05:52:20;;;;;;;;;;;28.70;58.50;;;;;;5138754;27;43805;-80
2023/07/10 05:54:46;;;;;;;;;;;28.80;58.70;;;;;;5132656;27;43048;-80
2023/07/10 05:57:11;;;;;;;;;;;28.80;58.60;;;;;;5139254;27;43045;-80
2023/07/10 05:59:37;;;;;;;;;;;28.80;58.70;;;;;;5132282;27;42816;-81
2023/07/10 06:02:02;;;;;;;;;;;28.80;58.70;;;;;;5149134;27;43337;-81
2023/07/10 06:04:28;;;;;;;;;;;28.80;58.70;;;;;;5132038;27;43079;-80
2023/07/10 06:06:53;;;;;;;;;;;28.80;59.20;;;;;;5128917;27;42994;-81
2023/07/10 06:09:19;;;;;;;;;;;28.80;58.70;;;;;;5142579;27;43177;-80
2023/07/10 06:11:45;;;;;;;;;;;28.80;58.70;;;;;;5119651;27;43090;-81
2023/07/10 06:14:10;;;;;;;;;;;28.80;58.60;;;;;;5146056;27;43069;-83
2023/07/10 06:16:36;;;;;;;;;;;28.80;58.60;;;;;;5128483;27;43474;-82
2023/07/10 06:19:01;;;;;;;;;;;28.90;59.10;;;;;;5131710;27;42893;-80
2023/07/10 06:21:30;;;;;;;;;;;28.90;59.20;;;;;;5126486;27;45483;-81
2023/07/10 06:23:55;;;;;;;;;;;28.80;58.70;;;;;;5148582;27;42923;-80
2023/07/10 06:26:21;;;;;;;;;;;28.80;58.60;;;;;;5136974;27;43454;-80
2023/07/10 06:28:46;;;;;;;;;;;28.80;58.70;;;;;;5141214;27;43045;-82
2023/07/10 06:31:12;;;;;;;;;;;28.80;58.70;;;;;;5128104;27;43581;-82
2023/07/10 06:33:38;;;;;;;;;;;28.80;59.20;;;;;;5143856;27;42854;-82
2023/07/10 06:36:04;;;;;;;;;;;28.80;58.90;;;;;;5147119;27;43105;-83
2023/07/10 06:38:30;;;;;;;;;;;28.80;58.90;;;;;;5147142;27;43012;-81
2023/07/10 06:40:55;;;;;;;;;;;28.80;58.90;;;;;;5138968;27;43047;-80
2023/07/10 06:43:21;;;;;;;;;;;28.80;59.00;;;;;;5111585;27;42955;-81
2023/07/10 06:45:48;;;;;;;;;;;28.80;59.00;;;;;;5139295;27;42950;-80
2023/07/10 06:48:13;;;;;;;;;;;28.80;59.00;;;;;;5124785;27;42977;-80
2023/07/10 06:50:39;;;;;;;;;;;28.80;59.00;;;;;;5139328;27;43069;-81
2023/07/10 06:53:05;;;;;;;;;;;28.80;59.00;;;;;;5123272;27;43069;-80
2023/07/10 06:55:31;;;;;;;;;;;28.80;59.00;;;;;;5129475;27;43360;-80
2023/07/10 06:57:57;;;;;;;;;;;28.80;59.10;;;;;;5114684;27;42925;-81
2023/07/10 07:00:23;;;;;;;;;;;28.80;59.10;;;;;;5136743;27;43006;-80
2023/07/10 07:02:49;;;;;;;;;;;28.80;59.10;;;;;;5136991;27;42826;-79
2023/07/10 07:05:14;;;;;;;;;;;28.80;59.20;;;;;;5147526;27;44616;-78
2023/07/10 07:07:40;;;;;;;;;;;28.80;59.20;;;;;;5141850;27;42988;-80
2023/07/10 07:10:07;;;;;;;;;;;28.80;59.10;;;;;;5126687;27;43644;-80
2023/07/10 07:12:32;;;;;;;;;;;28.80;59.00;;;;;;5113869;27;44329;-80
2023/07/10 07:15:09;;;;;;;;;;;28.80;58.70;;;;;;5136744;27;43092;-80
2023/07/10 07:17:35;;;;;;;;;;;28.80;58.60;;;;;;5147154;27;42955;-79
2023/07/10 07:20:00;;;;;;;;;;;28.70;58.50;;;;;;5137932;27;43588;-80
2023/07/10 07:22:26;;;;;;;;;;;28.80;58.60;;;;;;5143028;27;43009;-81
2023/07/10 07:24:51;;;;;;;;;;;28.80;59.00;;;;;;5133974;27;43546;-82
2023/07/10 07:27:17;;;;;;;;;;;28.80;58.40;;;;;;5133978;27;43093;-82
2023/07/10 07:29:43;;;;;;;;;;;28.80;58.30;;;;;;5136914;27;43542;-82
2023/07/10 07:32:11;;;;;;;;;;;28.80;58.20;;;;;;5144464;27;42957;-81
2023/07/10 07:34:36;;;;;;;;;;;28.80;58.70;;;;;;5147854;27;42986;-81
2023/07/10 07:37:03;;;;;;;;;;;28.80;58.20;;;;;;5133794;27;42974;-80
2023/07/10 07:39:31;;;;;;;;;;;28.80;58.60;;;;;;5136743;27;43459;-81
2023/07/10 07:41:57;;;;;;;;;;;28.80;58.00;;;;;;5144516;27;42961;-82
2023/07/10 07:44:23;;;;;;;;;;;28.80;58.40;;;;;;5147605;27;43208;-81
2023/07/10 07:46:48;;;;;;;;;;;28.80;58.40;;;;;;5133574;27;42883;-81
2023/07/10 07:49:14;;;;;;;;;;;28.80;57.80;;;;;;5147618;27;42926;-82
2023/07/10 07:51:39;;;;;;;;;;;28.80;57.80;;;;;;5143288;27;43315;-81
2023/07/10 07:54:07;;;;;;;;;;;28.80;58.00;;;;;;5127664;27;43499;-82
2023/07/10 07:56:33;;;;;;;;;;;28.80;58.50;;;;;;5131817;27;43000;-82
2023/07/10 07:58:58;;;;;;;;;;;28.80;58.10;;;;;;5117647;27;43481;-83
2023/07/10 08:01:24;;;;;;;;;;;28.80;58.20;;;;;;5110120;27;43043;-82
2023/07/10 08:03:49;;;;;;;;;;;28.80;58.70;;;;;;5138492;27;42893;-83
2023/07/10 08:06:15;;;;;;;;;;;28.80;58.20;;;;;;5134265;27;43025;-81
2023/07/10 08:08:40;;;;;;;;;;;28.80;58.70;;;;;;5133017;27;43601;-80
2023/07/10 08:11:06;;;;;;;;;;;28.80;58.90;;;;;;5140885;27;42895;-80
2023/07/10 08:13:32;;;;;;;;;;;28.80;58.70;;;;;;5146005;27;43062;-81
2023/07/10 08:15:58;;;;;;;;;;;28.80;58.70;;;;;;5132310;27;42861;-80
2023/07/10 08:18:24;;;;;;;;;;;28.80;58.70;;;;;;5124260;27;45093;-80
2023/07/10 08:20:49;;;;;;;;;;;28.80;59.20;;;;;;5133949;27;43189;-80
2023/07/10 08:23:15;;;;;;;;;;;28.80;58.80;;;;;;5134597;27;42914;-80
2023/07/10 08:25:40;;;;;;;;;;;28.90;59.20;;;;;;5137282;27;43325;-81
2023/07/10 08:28:06;;;;;;;;;;;28.90;59.30;;;;;;5141658;27;43515;-80
2023/07/10 08:30:31;;;;;;;;;;;28.90;59.00;;;;;;5123592;27;43044;-80
2023/07/10 08:32:57;;;;;;;;;;;28.90;59.00;;;;;;5134680;27;43328;-80
2023/07/10 08:35:22;;;;;;;;;;;28.90;59.50;;;;;;5131685;27;43091;-80
2023/07/10 08:37:49;;;;;;;;;;;28.90;59.80;;;;;;5140722;27;43084;-79
2023/07/10 08:40:29;;;;;;;;;;;28.90;59.80;;;;;;5132670;27;42850;-81
2023/07/10 08:42:55;;;;;;;;;;;28.90;59.70;;;;;;5145597;27;43686;-80
2023/07/10 08:45:30;;;;;;;;;;;28.90;59.70;;;;;;5142191;27;43005;-79
2023/07/10 08:48:00;;;;;;;;;;;28.90;59.70;;;;;;5126161;27;42881;-80
2023/07/10 08:50:29;;;;;;;;;;;28.90;59.70;;;;;;5118559;27;42781;-79
2023/07/10 08:52:59;;;;;;;;;;;28.90;59.80;;;;;;5131574;27;43418;-79
2023/07/10 08:55:27;;;;;;;;;;;28.90;59.70;;;;;;5136727;27;43025;-79
2023/07/10 08:57:55;;;;;;;;;;;28.90;59.60;;;;;;5131489;27;43954;-79
2023/07/10 09:00:21;;;;;;;;;;;28.90;59.30;;;;;;5145153;27;43055;-80
2023/07/10 09:03:05;;;;;;;;;;;28.90;59.10;;;;;;5145145;27;43579;-79
2023/07/10 09:05:32;;;;;;;;;;;28.90;59.50;;;;;;5132462;27;43011;-81
2023/07/10 09:08:09;;;;;;;;;;;29.00;59.40;;;;;;5142581;27;43836;-80
2023/07/10 09:10:43;;;;;;;;;;;29.00;59.40;;;;;;5114504;27;42949;-80
2023/07/10 09:13:11;;;;;;;;;;;29.00;59.50;;;;;;5126444;27;42995;-80
2023/07/10 09:15:41;;;;;;;;;;;29.00;59.40;;;;;;5129469;27;42853;-80
2023/07/10 09:18:09;;;;;;;;;;;29.00;59.70;;;;;;5140896;27;43848;-80
2023/07/10 09:20:36;;;;;;;;;;;29.00;59.80;;;;;;5143277;27;43516;-80
2023/07/10 09:23:03;;;;;;;;;;;29.00;59.40;;;;;;5136419;27;43042;-80
2023/07/10 09:25:29;;;;;;;;;;;29.00;59.20;;;;;;5141688;27;43081;-80
2023/07/10 09:27:55;;;;;;;;;;;29.00;59.30;;;;;;5138705;27;43622;-80
2023/07/10 09:30:26;;;;;;;;;;;29.00;59.30;;;;;;5128801;27;43264;-79
2023/07/10 09:33:02;;;;;;;;;;;29.00;59.40;;;;;;5124621;27;43115;-80
2023/07/10 09:35:28;;;;;;;;;;;29.00;59.90;;;;;;5124448;27;42936;-80
2023/07/10 09:37:54;;;;;;;;;;;29.00;59.40;;;;;;5136697;27;43000;-80
2023/07/10 09:40:39;;;;;;;;;;;29.00;59.30;;;;;;5132218;27;43056;-79
2023/07/10 09:43:06;;;;;;;;;;;29.00;59.20;;;;;;5143912;27;43140;-79
2023/07/10 09:45:33;;;;;;;;;;;28.90;59.20;;;;;;5137224;27;43046;-80
2023/07/10 09:47:58;;;;;;;;;;;29.00;59.00;;;;;;5139054;27;43661;-80
2023/07/10 09:50:24;;;;;;;;;;;29.00;59.20;;;;;;5125745;27;42933;-80
2023/07/10 09:52:55;;;;;;;;;;;29.00;59.70;;;;;;5127081;27;42939;-80
2023/07/10 09:55:22;;;;;;;;;;;29.10;59.70;;;;;;5125932;27;42989;-80
2023/07/10 09:57:58;;;;;;;;;;;29.00;59.80;;;;;;5108517;27;43413;-80
2023/07/10 10:00:24;;;;;;;;;;;29.00;60.30;;;;;;5146316;27;42920;-79
2023/07/10 10:02:54;;;;;;;;;;;29.10;60.40;;;;;;5145825;27;42961;-79
2023/07/10 10:05:20;;;;;;;;;;;29.10;60.30;;;;;;5139472;27;43485;-79
2023/07/10 10:07:51;;;;;;;;;;;29.10;60.40;;;;;;5113795;27;44566;-80
2023/07/10 10:10:21;;;;;;;;;;;29.10;60.90;;;;;;5112734;27;43779;-78
2023/07/10 10:12:52;;;;;;;;;;;29.10;60.10;;;;;;5138442;27;43898;-80
2023/07/10 10:15:25;;;;;;;;;;;29.10;60.00;;;;;;5116242;27;44597;-79
2023/07/10 10:17:51;;;;;;;;;;;29.10;59.90;;;;;;5131141;27;43913;-79
2023/07/10 10:20:28;;;;;;;;;;;29.10;60.50;;;;;;5108224;27;42924;-79
2023/07/10 10:22:57;;;;;;;;;;;29.10;60.50;;;;;;5120980;27;43039;-79
2023/07/10 10:25:29;;;;;;;;;;;29.20;60.70;;;;;;5140866;27;43005;-79
2023/07/10 10:28:15;;;;;;;;;;;29.10;59.80;;;;;;5135818;27;43588;-80
2023/07/10 10:30:45;;;;;;;;;;;29.10;59.80;;;;;;5135625;27;43221;-80
2023/07/10 10:33:11;;;;;;;;;;;29.20;60.40;;;;;;5145396;27;42924;-80
2023/07/10 10:35:51;;;;;;;;;;;29.20;59.80;;;;;;5136414;27;43124;-80
2023/07/10 10:38:35;;;;;;;;;;;29.20;59.70;;;;;;5137376;27;43555;-80
2023/07/10 10:41:03;;;;;;;;;;;29.10;60.10;;;;;;5134900;27;42898;-80
2023/07/10 10:43:42;;;;;;;;;;;29.20;59.60;;;;;;5129242;27;43033;-79
2023/07/10 10:46:07;;;;;;;;;;;29.20;59.40;;;;;;5132043;27;43054;-80
2023/07/10 10:48:39;;;;;;;;;;;29.10;59.70;;;;;;5142519;27;43619;-80
2023/07/10 10:51:13;;;;;;;;;;;29.10;59.60;;;;;;5143307;27;43029;-80
2023/07/10 10:53:38;;;;;;;;;;;29.10;59.10;;;;;;5139837;27;44474;-79
2023/07/10 10:56:25;;;;;;;;;;;29.20;59.10;;;;;;5135771;27;43023;-82
2023/07/10 10:58:56;;;;;;;;;;;29.20;58.90;;;;;;5136574;27;44064;-80
2023/07/10 11:01:22;;;;;;;;;;;29.20;58.80;;;;;;5135412;27;43161;-79
2023/07/10 11:03:54;;;;;;;;;;;29.20;58.80;;;;;;5136723;27;43562;-79
2023/07/10 11:06:26;;;;;;;;;;;29.20;59.20;;;;;;5133969;27;42920;-80
2023/07/10 11:08:53;;;;;;;;;;;29.20;59.10;;;;;;5137510;27;43620;-80
2023/07/10 11:11:22;;;;;;;;;;;29.20;58.70;;;;;;5128582;27;42986;-80
2023/07/10 11:13:47;;;;;;;;;;;29.10;58.60;;;;;;5138246;27;43840;-80
2023/07/10 11:16:13;;;;;;;;;;;29.10;58.50;;;;;;5134660;27;42978;-80
2023/07/10 11:18:39;;;;;;;;;;;29.20;58.50;;;;;;5116363;27;44841;-80
2023/07/10 11:21:04;;;;;;;;;;;29.20;59.10;;;;;;5137600;27;43313;-79
2023/07/10 11:23:34;;;;;;;;;;;29.20;58.90;;;;;;5143466;27;43101;-79
2023/07/10 11:26:01;;;;;;;;;;;29.30;58.90;;;;;;5139955;27;43006;-79
2023/07/10 11:28:28;;;;;;;;;;;29.20;58.60;;;;;;5136884;27;43364;-79
2023/07/10 11:31:14;;;;;;;;;;;29.20;58.50;;;;;;5130698;27;43877;-78
2023/07/10 11:33:41;;;;;;;;;;;29.30;58.60;;;;;;5138261;27;43425;-79
2023/07/10 11:36:09;;;;;;;;;;;29.30;58.40;;;;;;5136079;27;43134;-79
2023/07/10 11:38:35;;;;;;;;;;;29.20;58.80;;;;;;5137932;27;43450;-77
2023/07/10 11:41:09;;;;;;;;;;;29.20;58.20;;;;;;5133966;27;43193;-80
2023/07/10 11:43:34;;;;;;;;;;;29.30;58.80;;;;;;5134957;27;45233;-80
2023/07/10 11:46:04;;;;;;;;;;;29.20;58.70;;;;;;5108410;27;42929;-79
2023/07/10 11:48:53;;;;;;;;;;;29.30;58.80;;;;;;5139370;27;43144;-83
2023/07/10 11:51:25;;;;;;;;;;;29.30;59.00;;;;;;5125779;27;43292;-81
2023/07/10 11:54:14;;;;;;;;;;;29.20;58.80;;;;;;5135084;27;42952;-79
2023/07/10 11:56:59;;;;;;;;;;;29.20;58.90;;;;;;5131666;27;42938;-80
2023/07/10 11:59:25;;;;;;;;;;;29.30;59.60;;;;;;5135157;27;44616;-79
2023/07/10 12:01:51;;;;;;;;;;;29.20;59.10;;;;;;5132653;27;42956;-80
2023/07/10 12:04:18;;;;;;;;;;;29.30;60.00;;;;;;5137410;27;42920;-80
2023/07/10 12:06:46;;;;;;;;;;;29.40;60.80;;;;;;5135471;27;44348;-81
2023/07/10 12:09:12;;;;;;;;;;;29.30;60.70;;;;;;5129189;27;44010;-80
2023/07/10 12:11:38;;;;;;;;;;;29.40;59.50;;;;;;5141272;27;42857;-79
2023/07/10 12:14:23;;;;;;;;;;;29.40;60.00;;;;;;5131671;27;43661;-79
2023/07/10 12:16:55;;;;;;;;;;;29.30;59.20;;;;;;5150983;27;42925;-78
2023/07/10 12:19:25;;;;;;;;;;;29.30;58.80;;;;;;5130792;27;42935;-79
2023/07/10 12:21:50;;;;;;;;;;;29.40;59.20;;;;;;5131912;27;42978;-80
2023/07/10 12:24:16;;;;;;;;;;;29.40;58.70;;;;;;5139964;27;43000;-80
2023/07/10 12:26:42;;;;;;;;;;;29.30;58.60;;;;;;5141317;27;42996;-80
2023/07/10 12:29:12;;;;;;;;;;;29.30;58.70;;;;;;5126636;27;43860;-79
2023/07/10 12:31:38;;;;;;;;;;;29.30;58.90;;;;;;5139461;27;43269;-80
2023/07/10 12:34:05;;;;;;;;;;;29.30;59.00;;;;;;5140004;27;43763;-79
2023/07/10 12:36:35;;;;;;;;;;;29.30;59.00;;;;;;5126316;27;43020;-80
2023/07/10 12:39:04;;;;;;;;;;;29.40;59.00;;;;;;5133228;27;42813;-78
2023/07/10 12:41:33;;;;;;;;;;;29.50;58.90;;;;;;5126875;27;43004;-79
2023/07/10 12:44:01;;;;;;;;;;;29.50;58.80;;;;;;5146675;27;42949;-79
2023/07/10 12:46:28;;;;;;;;;;;29.40;58.70;;;;;;5145409;27;43025;-79
2023/07/10 12:49:01;;;;;;;;;;;29.50;58.80;;;;;;5145571;27;43398;-79
2023/07/10 12:51:31;;;;;;;;;;;29.40;58.70;;;;;;5145299;27;43853;-79
2023/07/10 12:54:00;;;;;;;;;;;29.50;59.10;;;;;;5145698;27;43040;-80
2023/07/10 12:56:37;;;;;;;;;;;29.50;59.20;;;;;;5145918;27;42971;-79
2023/07/10 12:59:26;;;;;;;;;;;29.50;58.50;;;;;;5146318;27;43017;-79
2023/07/10 13:01:57;;;;;;;;;;;29.40;58.40;;;;;;5119997;27;42869;-79
2023/07/10 13:04:24;;;;;;;;;;;29.40;58.90;;;;;;5131852;27;42894;-79
2023/07/10 13:07:09;;;;;;;;;;;29.50;59.10;;;;;;5118015;27;42975;-80
2023/07/10 13:09:34;;;;;;;;;;;29.50;59.10;;;;;;5130470;27;43888;-79
2023/07/10 13:12:03;;;;;;;;;;;29.40;58.70;;;;;;5146680;27;43008;-80
2023/07/10 13:14:33;;;;;;;;;;;29.50;59.30;;;;;;5145828;27;42961;-80
2023/07/10 13:16:59;;;;;;;;;;;29.50;58.70;;;;;;5146444;27;42857;-79
2023/07/10 13:19:24;;;;;;;;;;;29.50;58.70;;;;;;5145084;27;42931;-79
2023/07/10 13:21:50;;;;;;;;;;;29.50;58.90;;;;;;5145329;27;43060;-79
2023/07/10 13:24:15;;;;;;;;;;;29.50;59.30;;;;;;5143832;27;43906;-80
2023/07/10 13:26:43;;;;;;;;;;;29.50;59.00;;;;;;5144384;27;43253;-80
2023/07/10 13:29:10;;;;;;;;;;;29.50;59.00;;;;;;5125617;27;45387;-79
2023/07/10 13:31:36;;;;;;;;;;;29.50;59.00;;;;;;5132840;27;43043;-79
2023/07/10 13:34:01;;;;;;;;;;;29.60;59.30;;;;;;5146032;27;43662;-79
2023/07/10 13:36:27;;;;;;;;;;;29.50;59.20;;;;;;5130701;27;42938;-79
2023/07/10 13:38:53;;;;;;;;;;;29.60;59.30;;;;;;5149083;27;43571;-79
2023/07/10 13:41:20;;;;;;;;;;;29.50;59.10;;;;;;5149281;27;42876;-80
2023/07/10 13:43:46;;;;;;;;;;;29.60;59.60;;;;;;5148302;27;43441;-78
2023/07/10 13:46:18;;;;;;;;;;;29.60;59.00;;;;;;5148429;27;42949;-78
2023/07/10 13:48:43;;;;;;;;;;;29.60;59.40;;;;;;5135446;27;43136;-80
2023/07/10 13:51:10;;;;;;;;;;;29.60;58.90;;;;;;5147218;27;42837;-79
2023/07/10 13:53:36;;;;;;;;;;;29.50;58.90;;;;;;5149254;27;43828;-79
2023/07/10 13:56:02;;;;;;;;;;;29.60;59.00;;;;;;5128183;27;43144;-79
2023/07/10 13:58:27;;;;;;;;;;;29.60;59.10;;;;;;5147380;27;43013;-79
2023/07/10 14:00:55;;;;;;;;;;;29.60;59.10;;;;;;5145841;27;42866;-79
2023/07/10 14:03:21;;;;;;;;;;;29.60;59.50;;;;;;5148408;27;43567;-79
2023/07/10 14:05:47;;;;;;;;;;;29.60;59.10;;;;;;5146429;27;43016;-80
2023/07/10 14:08:16;;;;;;;;;;;29.60;59.10;;;;;;5147578;27;42962;-79
2023/07/10 14:10:41;;;;;;;;;;;29.60;59.60;;;;;;5146921;27;42892;-80
2023/07/10 14:13:11;;;;;;;;;;;29.60;59.20;;;;;;5147827;27;44012;-79
2023/07/10 14:15:38;;;;;;;;;;;29.60;59.20;;;;;;5148459;27;42968;-80
2023/07/10 14:18:10;;;;;;;;;;;29.60;59.60;;;;;;5148405;27;42904;-80